sensor_id;sensor_type;location;lat;lon;timestamp;P1;durP1;ratioP1;P2;durP2;ratioP2
56419;SDS011;42323;52.170;7.538;2023-07-29T00:01:55;4.13;;;2.95;;
56419;SDS011;42323;52.170;7.538;2023-07-29T00:04:21;5.53;;;2.90;;
56419;SDS011;42323;52.170;7.538;2023-07-29T00:06:48;4.38;;;3.13;;
56419;SDS011;42323;52.170;7.538;2023-07-29T00:09:18;5.03;;;3.10;;
56419;SDS011;42323;52.170;7.538;2023-07-29T00:11:44;4.32;;;3.28;;
56419;SDS011;42323;52.170;7.538;2023-07-29T00:14:11;4.00;;;2.97;;
56419;SDS011;42323;52.170;7.538;2023-07-29T00:16:38;4.95;;;3.60;;
56419;SDS011;42323;52.170;7.538;2023-07-29T00:19:05;4.28;;;3.17;;
56419;SDS011;42323;52.170;7.538;2023-07-29T00:21:31;4.85;;;3.40;;
56419;SDS011;42323;52.170;7.538;2023-07-29T00:23:58;4.88;;;3.63;;
56419;SDS011;42323;52.170;7.538;2023-07-29T00:26:24;4.88;;;3.60;;
56419;SDS011;42323;52.170;7.538;2023-07-29T00:28:52;4.25;;;3.30;;
56419;SDS011;42323;52.170;7.538;2023-07-29T00:31:18;4.03;;;3.17;;
56419;SDS011;42323;52.170;7.538;2023-07-29T00:33:45;9.70;;;3.33;;
56419;SDS011;42323;52.170;7.538;2023-07-29T00:36:11;5.75;;;3.25;;
56419;SDS011;42323;52.170;7.538;2023-07-29T00:38:38;4.70;;;2.70;;
56419;SDS011;42323;52.170;7.538;2023-07-29T00:41:04;4.07;;;2.95;;
56419;SDS011;42323;52.170;7.538;2023-07-29T00:43:31;4.57;;;2.80;;
56419;SDS011;42323;52.170;7.538;2023-07-29T00:45:59;3.90;;;2.65;;
56419;SDS011;42323;52.170;7.538;2023-07-29T00:48:26;3.17;;;2.65;;
56419;SDS011;42323;52.170;7.538;2023-07-29T00:50:54;5.72;;;2.85;;
56419;SDS011;42323;52.170;7.538;2023-07-29T00:53:21;3.42;;;2.80;;
56419;SDS011;42323;52.170;7.538;2023-07-29T00:55:48;3.75;;;2.80;;
56419;SDS011;42323;52.170;7.538;2023-07-29T00:58:14;4.10;;;2.92;;
56419;SDS011;42323;52.170;7.538;2023-07-29T01:00:41;4.80;;;2.45;;
56419;SDS011;42323;52.170;7.538;2023-07-29T01:03:08;4.55;;;2.50;;
56419;SDS011;42323;52.170;7.538;2023-07-29T01:08:38;4.50;;;2.63;;
56419;SDS011;42323;52.170;7.538;2023-07-29T01:17:22;4.10;;;2.88;;
56419;SDS011;42323;52.170;7.538;2023-07-29T01:20:05;3.58;;;2.80;;
56419;SDS011;42323;52.170;7.538;2023-07-29T01:22:35;3.95;;;2.92;;
56419;SDS011;42323;52.170;7.538;2023-07-29T01:25:03;4.43;;;3.05;;
56419;SDS011;42323;52.170;7.538;2023-07-29T01:27:30;5.25;;;3.42;;
56419;SDS011;42323;52.170;7.538;2023-07-29T01:29:57;4.55;;;2.95;;
56419;SDS011;42323;52.170;7.538;2023-07-29T01:37:49;5.20;;;3.45;;
56419;SDS011;42323;52.170;7.538;2023-07-29T01:40:20;5.38;;;3.70;;
56419;SDS011;42323;52.170;7.538;2023-07-29T01:42:49;5.10;;;3.47;;
56419;SDS011;42323;52.170;7.538;2023-07-29T01:45:15;5.32;;;3.67;;
56419;SDS011;42323;52.170;7.538;2023-07-29T01:47:43;4.78;;;3.67;;
56419;SDS011;42323;52.170;7.538;2023-07-29T01:50:10;6.70;;;3.90;;
56419;SDS011;42323;52.170;7.538;2023-07-29T01:52:36;4.47;;;3.25;;
56419;SDS011;42323;52.170;7.538;2023-07-29T01:55:03;6.10;;;3.85;;
56419;SDS011;42323;52.170;7.538;2023-07-29T01:57:30;5.65;;;4.07;;
56419;SDS011;42323;52.170;7.538;2023-07-29T01:59:56;5.65;;;3.50;;
56419;SDS011;42323;52.170;7.538;2023-07-29T02:02:23;5.47;;;3.53;;
56419;SDS011;42323;52.170;7.538;2023-07-29T02:04:49;5.63;;;3.78;;
56419;SDS011;42323;52.170;7.538;2023-07-29T02:07:18;5.97;;;3.95;;
56419;SDS011;42323;52.170;7.538;2023-07-29T02:09:45;4.65;;;3.72;;
56419;SDS011;42323;52.170;7.538;2023-07-29T02:12:12;6.45;;;4.10;;
56419;SDS011;42323;52.170;7.538;2023-07-29T02:14:38;6.55;;;4.10;;
56419;SDS011;42323;52.170;7.538;2023-07-29T02:17:05;6.43;;;4.07;;
56419;SDS011;42323;52.170;7.538;2023-07-29T02:19:31;6.00;;;4.20;;
56419;SDS011;42323;52.170;7.538;2023-07-29T02:21:58;8.05;;;4.10;;
56419;SDS011;42323;52.170;7.538;2023-07-29T02:24:24;4.97;;;3.67;;
56419;SDS011;42323;52.170;7.538;2023-07-29T02:26:51;4.95;;;3.80;;
56419;SDS011;42323;52.170;7.538;2023-07-29T02:29:17;5.47;;;3.35;;
56419;SDS011;42323;52.170;7.538;2023-07-29T02:31:44;5.70;;;3.72;;
56419;SDS011;42323;52.170;7.538;2023-07-29T02:34:10;6.35;;;3.80;;
56419;SDS011;42323;52.170;7.538;2023-07-29T02:36:37;6.75;;;4.68;;
56419;SDS011;42323;52.170;7.538;2023-07-29T02:39:04;5.30;;;3.72;;
56419;SDS011;42323;52.170;7.538;2023-07-29T02:41:30;7.22;;;3.55;;
56419;SDS011;42323;52.170;7.538;2023-07-29T02:43:57;5.60;;;3.38;;
56419;SDS011;42323;52.170;7.538;2023-07-29T02:46:23;5.93;;;3.80;;
56419;SDS011;42323;52.170;7.538;2023-07-29T02:48:50;7.30;;;4.07;;
56419;SDS011;42323;52.170;7.538;2023-07-29T02:51:16;5.82;;;3.92;;
56419;SDS011;42323;52.170;7.538;2023-07-29T02:53:43;8.10;;;4.38;;
56419;SDS011;42323;52.170;7.538;2023-07-29T02:56:09;5.70;;;3.92;;
56419;SDS011;42323;52.170;7.538;2023-07-29T02:58:36;6.88;;;4.28;;
56419;SDS011;42323;52.170;7.538;2023-07-29T03:01:04;6.93;;;4.68;;
56419;SDS011;42323;52.170;7.538;2023-07-29T03:03:31;6.85;;;4.32;;
56419;SDS011;42323;52.170;7.538;2023-07-29T03:05:59;9.13;;;4.97;;
56419;SDS011;42323;52.170;7.538;2023-07-29T03:08:26;6.43;;;4.40;;
56419;SDS011;42323;52.170;7.538;2023-07-29T03:10:52;6.47;;;4.20;;
56419;SDS011;42323;52.170;7.538;2023-07-29T03:13:19;6.72;;;4.60;;
56419;SDS011;42323;52.170;7.538;2023-07-29T03:15:45;7.68;;;4.53;;
56419;SDS011;42323;52.170;7.538;2023-07-29T03:18:12;7.50;;;4.68;;
56419;SDS011;42323;52.170;7.538;2023-07-29T03:20:38;6.95;;;4.75;;
56419;SDS011;42323;52.170;7.538;2023-07-29T03:23:05;7.28;;;4.38;;
56419;SDS011;42323;52.170;7.538;2023-07-29T03:25:31;6.10;;;4.20;;
56419;SDS011;42323;52.170;7.538;2023-07-29T03:27:58;6.45;;;4.55;;
56419;SDS011;42323;52.170;7.538;2023-07-29T03:30:25;9.95;;;4.90;;
56419;SDS011;42323;52.170;7.538;2023-07-29T03:32:52;7.80;;;4.70;;
56419;SDS011;42323;52.170;7.538;2023-07-29T03:35:19;7.72;;;5.25;;
56419;SDS011;42323;52.170;7.538;2023-07-29T03:37:45;8.85;;;5.90;;
56419;SDS011;42323;52.170;7.538;2023-07-29T03:40:12;7.85;;;4.38;;
56419;SDS011;42323;52.170;7.538;2023-07-29T03:42:38;6.18;;;4.18;;
56419;SDS011;42323;52.170;7.538;2023-07-29T03:45:05;9.40;;;5.10;;
56419;SDS011;42323;52.170;7.538;2023-07-29T03:47:32;7.50;;;4.47;;
56419;SDS011;42323;52.170;7.538;2023-07-29T03:49:58;6.22;;;4.57;;
56419;SDS011;42323;52.170;7.538;2023-07-29T03:52:25;8.18;;;4.82;;
56419;SDS011;42323;52.170;7.538;2023-07-29T03:54:52;6.20;;;4.70;;
56419;SDS011;42323;52.170;7.538;2023-07-29T03:57:18;8.55;;;4.72;;
56419;SDS011;42323;52.170;7.538;2023-07-29T03:59:45;7.90;;;5.32;;
56419;SDS011;42323;52.170;7.538;2023-07-29T04:02:11;8.13;;;5.32;;
56419;SDS011;42323;52.170;7.538;2023-07-29T04:04:38;8.57;;;5.35;;
56419;SDS011;42323;52.170;7.538;2023-07-29T04:07:05;7.82;;;4.72;;
56419;SDS011;42323;52.170;7.538;2023-07-29T04:09:32;8.02;;;5.07;;
56419;SDS011;42323;52.170;7.538;2023-07-29T04:11:58;8.15;;;4.75;;
56419;SDS011;42323;52.170;7.538;2023-07-29T04:14:25;7.20;;;4.75;;
56419;SDS011;42323;52.170;7.538;2023-07-29T04:16:51;8.55;;;5.30;;
56419;SDS011;42323;52.170;7.538;2023-07-29T04:19:18;7.22;;;5.30;;
56419;SDS011;42323;52.170;7.538;2023-07-29T04:21:44;8.93;;;5.40;;
56419;SDS011;42323;52.170;7.538;2023-07-29T04:24:12;7.10;;;5.18;;
56419;SDS011;42323;52.170;7.538;2023-07-29T04:26:38;8.80;;;5.18;;
56419;SDS011;42323;52.170;7.538;2023-07-29T04:29:05;9.32;;;6.18;;
56419;SDS011;42323;52.170;7.538;2023-07-29T04:31:32;8.63;;;5.70;;
56419;SDS011;42323;52.170;7.538;2023-07-29T04:33:58;9.15;;;6.15;;
56419;SDS011;42323;52.170;7.538;2023-07-29T04:36:25;9.48;;;6.18;;
56419;SDS011;42323;52.170;7.538;2023-07-29T04:38:51;11.38;;;6.68;;
56419;SDS011;42323;52.170;7.538;2023-07-29T04:41:18;15.45;;;9.57;;
56419;SDS011;42323;52.170;7.538;2023-07-29T04:43:45;9.25;;;6.05;;
56419;SDS011;42323;52.170;7.538;2023-07-29T04:46:11;9.30;;;6.28;;
56419;SDS011;42323;52.170;7.538;2023-07-29T04:48:38;10.80;;;7.13;;
56419;SDS011;42323;52.170;7.538;2023-07-29T04:51:04;10.02;;;6.55;;
56419;SDS011;42323;52.170;7.538;2023-07-29T04:53:30;10.50;;;7.38;;
56419;SDS011;42323;52.170;7.538;2023-07-29T04:55:57;9.82;;;6.38;;
56419;SDS011;42323;52.170;7.538;2023-07-29T04:58:23;9.95;;;6.80;;
56419;SDS011;42323;52.170;7.538;2023-07-29T05:00:50;12.82;;;7.15;;
56419;SDS011;42323;52.170;7.538;2023-07-29T05:03:17;10.23;;;6.53;;
56419;SDS011;42323;52.170;7.538;2023-07-29T05:05:43;9.88;;;6.30;;
56419;SDS011;42323;52.170;7.538;2023-07-29T05:08:10;10.40;;;6.88;;
56419;SDS011;42323;52.170;7.538;2023-07-29T05:10:36;8.55;;;6.07;;
56419;SDS011;42323;52.170;7.538;2023-07-29T05:13:03;9.68;;;6.72;;
56419;SDS011;42323;52.170;7.538;2023-07-29T05:15:29;13.40;;;8.07;;
56419;SDS011;42323;52.170;7.538;2023-07-29T05:17:56;10.73;;;7.35;;
56419;SDS011;42323;52.170;7.538;2023-07-29T05:20:23;11.60;;;7.28;;
56419;SDS011;42323;52.170;7.538;2023-07-29T05:22:49;10.52;;;6.82;;
56419;SDS011;42323;52.170;7.538;2023-07-29T05:25:16;12.48;;;7.07;;
56419;SDS011;42323;52.170;7.538;2023-07-29T05:27:42;9.60;;;6.85;;
56419;SDS011;42323;52.170;7.538;2023-07-29T05:30:09;10.95;;;7.72;;
56419;SDS011;42323;52.170;7.538;2023-07-29T05:32:35;13.27;;;7.80;;
56419;SDS011;42323;52.170;7.538;2023-07-29T05:35:02;11.25;;;7.30;;
56419;SDS011;42323;52.170;7.538;2023-07-29T05:37:29;10.80;;;7.07;;
56419;SDS011;42323;52.170;7.538;2023-07-29T05:39:55;10.38;;;6.95;;
56419;SDS011;42323;52.170;7.538;2023-07-29T05:42:22;13.23;;;7.30;;
56419;SDS011;42323;52.170;7.538;2023-07-29T05:44:48;11.52;;;6.95;;
56419;SDS011;42323;52.170;7.538;2023-07-29T05:47:15;11.48;;;7.80;;
56419;SDS011;42323;52.170;7.538;2023-07-29T05:49:41;11.50;;;7.57;;
56419;SDS011;42323;52.170;7.538;2023-07-29T05:52:08;10.15;;;6.65;;
56419;SDS011;42323;52.170;7.538;2023-07-29T05:54:34;14.43;;;7.50;;
56419;SDS011;42323;52.170;7.538;2023-07-29T05:57:01;10.93;;;6.53;;
56419;SDS011;42323;52.170;7.538;2023-07-29T05:59:35;12.38;;;7.25;;
56419;SDS011;42323;52.170;7.538;2023-07-29T06:02:02;11.10;;;7.32;;
56419;SDS011;42323;52.170;7.538;2023-07-29T06:04:30;10.40;;;7.13;;
56419;SDS011;42323;52.170;7.538;2023-07-29T06:06:56;11.05;;;6.80;;
56419;SDS011;42323;52.170;7.538;2023-07-29T06:09:23;11.65;;;6.43;;
56419;SDS011;42323;52.170;7.538;2023-07-29T06:11:51;11.13;;;6.68;;
56419;SDS011;42323;52.170;7.538;2023-07-29T06:14:20;11.98;;;6.63;;
56419;SDS011;42323;52.170;7.538;2023-07-29T06:16:47;9.68;;;6.75;;
56419;SDS011;42323;52.170;7.538;2023-07-29T06:19:14;9.45;;;6.60;;
56419;SDS011;42323;52.170;7.538;2023-07-29T06:21:41;10.77;;;7.22;;
56419;SDS011;42323;52.170;7.538;2023-07-29T06:24:08;12.05;;;7.18;;
56419;SDS011;42323;52.170;7.538;2023-07-29T06:26:36;11.10;;;7.20;;
56419;SDS011;42323;52.170;7.538;2023-07-29T06:29:03;9.75;;;6.90;;
56419;SDS011;42323;52.170;7.538;2023-07-29T06:31:30;10.48;;;6.68;;
56419;SDS011;42323;52.170;7.538;2023-07-29T06:33:58;10.30;;;7.00;;
56419;SDS011;42323;52.170;7.538;2023-07-29T06:36:25;11.60;;;7.20;;
56419;SDS011;42323;52.170;7.538;2023-07-29T06:38:52;10.55;;;6.78;;
56419;SDS011;42323;52.170;7.538;2023-07-29T06:41:18;7.53;;;5.18;;
56419;SDS011;42323;52.170;7.538;2023-07-29T06:43:46;11.20;;;5.90;;
56419;SDS011;42323;52.170;7.538;2023-07-29T06:46:12;8.50;;;5.68;;
56419;SDS011;42323;52.170;7.538;2023-07-29T06:48:39;9.65;;;6.28;;
56419;SDS011;42323;52.170;7.538;2023-07-29T06:51:05;9.10;;;5.57;;
56419;SDS011;42323;52.170;7.538;2023-07-29T06:53:32;10.88;;;5.15;;
56419;SDS011;42323;52.170;7.538;2023-07-29T06:56:00;6.72;;;4.30;;
56419;SDS011;42323;52.170;7.538;2023-07-29T06:58:27;8.43;;;4.30;;
56419;SDS011;42323;52.170;7.538;2023-07-29T07:00:54;5.57;;;3.88;;
56419;SDS011;42323;52.170;7.538;2023-07-29T07:03:23;5.25;;;3.38;;
56419;SDS011;42323;52.170;7.538;2023-07-29T07:05:49;4.53;;;2.92;;
56419;SDS011;42323;52.170;7.538;2023-07-29T07:08:17;3.97;;;2.85;;
56419;SDS011;42323;52.170;7.538;2023-07-29T07:10:43;4.43;;;2.40;;
56419;SDS011;42323;52.170;7.538;2023-07-29T07:13:10;5.20;;;2.75;;
56419;SDS011;42323;52.170;7.538;2023-07-29T07:15:36;3.22;;;2.40;;
56419;SDS011;42323;52.170;7.538;2023-07-29T07:18:03;4.20;;;2.35;;
56419;SDS011;42323;52.170;7.538;2023-07-29T07:20:30;3.75;;;2.03;;
56419;SDS011;42323;52.170;7.538;2023-07-29T07:22:56;1.88;;;1.48;;
56419;SDS011;42323;52.170;7.538;2023-07-29T07:25:23;2.10;;;1.40;;
56419;SDS011;42323;52.170;7.538;2023-07-29T07:27:49;2.63;;;1.77;;
56419;SDS011;42323;52.170;7.538;2023-07-29T07:30:16;1.88;;;1.30;;
56419;SDS011;42323;52.170;7.538;2023-07-29T07:32:42;2.00;;;1.33;;
56419;SDS011;42323;52.170;7.538;2023-07-29T07:35:09;2.53;;;1.40;;
56419;SDS011;42323;52.170;7.538;2023-07-29T07:37:36;1.85;;;1.30;;
56419;SDS011;42323;52.170;7.538;2023-07-29T07:40:02;3.08;;;1.70;;
56419;SDS011;42323;52.170;7.538;2023-07-29T07:42:29;1.90;;;1.30;;
56419;SDS011;42323;52.170;7.538;2023-07-29T07:44:56;2.33;;;1.42;;
56419;SDS011;42323;52.170;7.538;2023-07-29T07:47:22;1.98;;;1.33;;
56419;SDS011;42323;52.170;7.538;2023-07-29T07:49:49;2.20;;;1.50;;
56419;SDS011;42323;52.170;7.538;2023-07-29T07:52:16;2.53;;;1.48;;
56419;SDS011;42323;52.170;7.538;2023-07-29T07:54:43;3.47;;;1.40;;
56419;SDS011;42323;52.170;7.538;2023-07-29T07:57:09;2.20;;;1.33;;
56419;SDS011;42323;52.170;7.538;2023-07-29T07:59:36;2.88;;;1.35;;
56419;SDS011;42323;52.170;7.538;2023-07-29T08:02:02;2.60;;;1.50;;
56419;SDS011;42323;52.170;7.538;2023-07-29T08:04:29;2.03;;;1.33;;
56419;SDS011;42323;52.170;7.538;2023-07-29T08:06:56;1.73;;;1.20;;
56419;SDS011;42323;52.170;7.538;2023-07-29T08:09:22;2.55;;;1.60;;
56419;SDS011;42323;52.170;7.538;2023-07-29T08:11:49;2.47;;;1.50;;
56419;SDS011;42323;52.170;7.538;2023-07-29T08:14:15;1.90;;;1.20;;
56419;SDS011;42323;52.170;7.538;2023-07-29T08:16:42;2.28;;;1.52;;
56419;SDS011;42323;52.170;7.538;2023-07-29T08:19:08;1.98;;;1.50;;
56419;SDS011;42323;52.170;7.538;2023-07-29T08:21:36;2.17;;;1.20;;
56419;SDS011;42323;52.170;7.538;2023-07-29T08:24:02;2.53;;;1.67;;
56419;SDS011;42323;52.170;7.538;2023-07-29T08:26:29;3.22;;;1.50;;
56419;SDS011;42323;52.170;7.538;2023-07-29T08:28:56;1.85;;;1.20;;
56419;SDS011;42323;52.170;7.538;2023-07-29T08:31:22;3.10;;;1.40;;
56419;SDS011;42323;52.170;7.538;2023-07-29T08:33:49;2.88;;;1.38;;
56419;SDS011;42323;52.170;7.538;2023-07-29T08:36:16;2.92;;;1.38;;
56419;SDS011;42323;52.170;7.538;2023-07-29T08:38:42;1.98;;;1.23;;
56419;SDS011;42323;52.170;7.538;2023-07-29T08:46:44;4.63;;;1.13;;
56419;SDS011;42323;52.170;7.538;2023-07-29T08:49:11;2.85;;;1.50;;
56419;SDS011;42323;52.170;7.538;2023-07-29T08:51:41;2.10;;;1.30;;
56419;SDS011;42323;52.170;7.538;2023-07-29T08:54:10;3.00;;;1.48;;
56419;SDS011;42323;52.170;7.538;2023-07-29T08:56:40;2.80;;;1.30;;
56419;SDS011;42323;52.170;7.538;2023-07-29T08:59:09;2.70;;;1.30;;
56419;SDS011;42323;52.170;7.538;2023-07-29T09:01:39;2.17;;;1.10;;
56419;SDS011;42323;52.170;7.538;2023-07-29T09:04:08;2.63;;;1.15;;
56419;SDS011;42323;52.170;7.538;2023-07-29T09:06:35;4.50;;;1.40;;
56419;SDS011;42323;52.170;7.538;2023-07-29T09:09:05;1.85;;;1.08;;
56419;SDS011;42323;52.170;7.538;2023-07-29T09:11:34;2.67;;;1.30;;
56419;SDS011;42323;52.170;7.538;2023-07-29T09:14:01;2.65;;;1.10;;
56419;SDS011;42323;52.170;7.538;2023-07-29T09:16:28;1.92;;;1.10;;
56419;SDS011;42323;52.170;7.538;2023-07-29T09:18:55;2.65;;;1.67;;
56419;SDS011;42323;52.170;7.538;2023-07-29T09:21:24;1.30;;;1.00;;
56419;SDS011;42323;52.170;7.538;2023-07-29T09:23:53;2.03;;;1.20;;
56419;SDS011;42323;52.170;7.538;2023-07-29T09:26:26;1.13;;;0.80;;
56419;SDS011;42323;52.170;7.538;2023-07-29T09:28:57;2.58;;;0.98;;
56419;SDS011;42323;52.170;7.538;2023-07-29T09:31:26;1.70;;;0.88;;
56419;SDS011;42323;52.170;7.538;2023-07-29T09:33:57;1.70;;;1.30;;
56419;SDS011;42323;52.170;7.538;2023-07-29T09:36:30;1.20;;;0.80;;
56419;SDS011;42323;52.170;7.538;2023-07-29T09:38:57;0.73;;;0.60;;
56419;SDS011;42323;52.170;7.538;2023-07-29T09:41:28;1.35;;;0.90;;
56419;SDS011;42323;52.170;7.538;2023-07-29T09:43:58;1.27;;;0.90;;
56419;SDS011;42323;52.170;7.538;2023-07-29T09:46:31;1.52;;;0.90;;
56419;SDS011;42323;52.170;7.538;2023-07-29T09:49:03;1.33;;;0.80;;
56419;SDS011;42323;52.170;7.538;2023-07-29T09:51:32;2.95;;;0.88;;
56419;SDS011;42323;52.170;7.538;2023-07-29T09:54:03;1.33;;;0.70;;
56419;SDS011;42323;52.170;7.538;2023-07-29T09:56:30;1.40;;;0.95;;
56419;SDS011;42323;52.170;7.538;2023-07-29T09:58:57;0.88;;;0.73;;
56419;SDS011;42323;52.170;7.538;2023-07-29T10:01:24;0.70;;;0.50;;
56419;SDS011;42323;52.170;7.538;2023-07-29T10:03:51;1.45;;;0.77;;
56419;SDS011;42323;52.170;7.538;2023-07-29T10:06:18;0.80;;;0.65;;
56419;SDS011;42323;52.170;7.538;2023-07-29T10:08:46;0.98;;;0.60;;
56419;SDS011;42323;52.170;7.538;2023-07-29T10:11:14;1.13;;;0.70;;
56419;SDS011;42323;52.170;7.538;2023-07-29T10:13:40;1.15;;;0.75;;
56419;SDS011;42323;52.170;7.538;2023-07-29T10:16:09;1.25;;;0.68;;
56419;SDS011;42323;52.170;7.538;2023-07-29T10:18:36;0.93;;;0.68;;
56419;SDS011;42323;52.170;7.538;2023-07-29T10:21:03;0.50;;;0.50;;
56419;SDS011;42323;52.170;7.538;2023-07-29T10:23:32;3.92;;;0.80;;
56419;SDS011;42323;52.170;7.538;2023-07-29T10:26:04;0.65;;;0.55;;
56419;SDS011;42323;52.170;7.538;2023-07-29T10:28:34;1.48;;;0.70;;
56419;SDS011;42323;52.170;7.538;2023-07-29T10:31:06;1.80;;;0.80;;
56419;SDS011;42323;52.170;7.538;2023-07-29T10:33:33;1.05;;;0.73;;
56419;SDS011;42323;52.170;7.538;2023-07-29T10:36:01;2.17;;;0.93;;
56419;SDS011;42323;52.170;7.538;2023-07-29T10:38:29;1.83;;;0.82;;
56419;SDS011;42323;52.170;7.538;2023-07-29T10:40:56;1.30;;;0.80;;
56419;SDS011;42323;52.170;7.538;2023-07-29T10:43:32;2.65;;;1.00;;
56419;SDS011;42323;52.170;7.538;2023-07-29T10:46:16;1.23;;;0.80;;
56419;SDS011;42323;52.170;7.538;2023-07-29T10:53:54;1.20;;;0.90;;
56419;SDS011;42323;52.170;7.538;2023-07-29T10:56:32;1.10;;;0.75;;
56419;SDS011;42323;52.170;7.538;2023-07-29T11:01:50;1.70;;;1.10;;
56419;SDS011;42323;52.170;7.538;2023-07-29T11:15:25;1.92;;;1.30;;
56419;SDS011;42323;52.170;7.538;2023-07-29T11:17:55;1.25;;;0.77;;
56419;SDS011;42323;52.170;7.538;2023-07-29T11:20:28;1.63;;;1.10;;
56419;SDS011;42323;52.170;7.538;2023-07-29T11:22:56;2.72;;;1.20;;
56419;SDS011;42323;52.170;7.538;2023-07-29T11:25:26;1.92;;;1.27;;
56419;SDS011;42323;52.170;7.538;2023-07-29T11:27:57;2.47;;;1.10;;
56419;SDS011;42323;52.170;7.538;2023-07-29T11:30:25;1.92;;;1.10;;
56419;SDS011;42323;52.170;7.538;2023-07-29T11:32:55;2.83;;;1.35;;
56419;SDS011;42323;52.170;7.538;2023-07-29T11:35:23;1.77;;;1.20;;
56419;SDS011;42323;52.170;7.538;2023-07-29T11:37:51;1.23;;;0.90;;
56419;SDS011;42323;52.170;7.538;2023-07-29T11:40:19;1.50;;;1.20;;
56419;SDS011;42323;52.170;7.538;2023-07-29T11:42:48;2.95;;;1.30;;
56419;SDS011;42323;52.170;7.538;2023-07-29T11:45:17;1.92;;;1.05;;
56419;SDS011;42323;52.170;7.538;2023-07-29T11:47:44;1.30;;;1.10;;
56419;SDS011;42323;52.170;7.538;2023-07-29T11:50:12;2.03;;;1.00;;
56419;SDS011;42323;52.170;7.538;2023-07-29T11:52:43;1.17;;;0.98;;
56419;SDS011;42323;52.170;7.538;2023-07-29T11:55:12;2.30;;;1.50;;
56419;SDS011;42323;52.170;7.538;2023-07-29T11:57:41;1.73;;;1.23;;
56419;SDS011;42323;52.170;7.538;2023-07-29T12:00:09;1.35;;;1.10;;
56419;SDS011;42323;52.170;7.538;2023-07-29T12:02:39;1.55;;;1.38;;
56419;SDS011;42323;52.170;7.538;2023-07-29T12:05:10;1.25;;;1.10;;
56419;SDS011;42323;52.170;7.538;2023-07-29T12:07:38;1.98;;;1.38;;
56419;SDS011;42323;52.170;7.538;2023-07-29T12:10:06;1.75;;;1.40;;
56419;SDS011;42323;52.170;7.538;2023-07-29T12:12:33;1.88;;;1.60;;
56419;SDS011;42323;52.170;7.538;2023-07-29T12:15:03;1.33;;;1.00;;
56419;SDS011;42323;52.170;7.538;2023-07-29T12:17:30;2.45;;;1.20;;
56419;SDS011;42323;52.170;7.538;2023-07-29T12:19:57;2.00;;;1.27;;
56419;SDS011;42323;52.170;7.538;2023-07-29T12:22:25;1.75;;;1.40;;
56419;SDS011;42323;52.170;7.538;2023-07-29T12:24:52;1.23;;;0.90;;
56419;SDS011;42323;52.170;7.538;2023-07-29T12:27:21;1.48;;;1.13;;
56419;SDS011;42323;52.170;7.538;2023-07-29T12:29:48;1.33;;;1.10;;
56419;SDS011;42323;52.170;7.538;2023-07-29T12:32:18;0.98;;;0.88;;
56419;SDS011;42323;52.170;7.538;2023-07-29T12:34:45;1.55;;;1.10;;
56419;SDS011;42323;52.170;7.538;2023-07-29T12:37:11;1.67;;;1.38;;
56419;SDS011;42323;52.170;7.538;2023-07-29T12:40:21;2.15;;;1.52;;
56419;SDS011;42323;52.170;7.538;2023-07-29T12:42:49;2.45;;;1.45;;
56419;SDS011;42323;52.170;7.538;2023-07-29T12:45:17;1.80;;;1.30;;
56419;SDS011;42323;52.170;7.538;2023-07-29T12:47:44;1.42;;;1.30;;
56419;SDS011;42323;52.170;7.538;2023-07-29T12:50:11;1.85;;;1.30;;
56419;SDS011;42323;52.170;7.538;2023-07-29T12:52:40;2.03;;;1.10;;
56419;SDS011;42323;52.170;7.538;2023-07-29T12:55:07;1.60;;;1.20;;
56419;SDS011;42323;52.170;7.538;2023-07-29T12:57:49;1.85;;;1.45;;
56419;SDS011;42323;52.170;7.538;2023-07-29T13:00:16;2.10;;;1.50;;
56419;SDS011;42323;52.170;7.538;2023-07-29T13:02:43;2.00;;;1.30;;
56419;SDS011;42323;52.170;7.538;2023-07-29T13:05:10;1.52;;;1.10;;
56419;SDS011;42323;52.170;7.538;2023-07-29T13:07:40;1.60;;;1.40;;
56419;SDS011;42323;52.170;7.538;2023-07-29T13:10:08;1.58;;;1.45;;
56419;SDS011;42323;52.170;7.538;2023-07-29T13:12:39;2.35;;;1.50;;
56419;SDS011;42323;52.170;7.538;2023-07-29T13:15:06;12.60;;;1.77;;
56419;SDS011;42323;52.170;7.538;2023-07-29T13:17:33;1.48;;;1.20;;
56419;SDS011;42323;52.170;7.538;2023-07-29T13:20:10;1.35;;;1.10;;
56419;SDS011;42323;52.170;7.538;2023-07-29T13:22:37;3.70;;;1.98;;
56419;SDS011;42323;52.170;7.538;2023-07-29T13:25:13;2.33;;;1.92;;
56419;SDS011;42323;52.170;7.538;2023-07-29T13:27:39;2.25;;;1.15;;
56419;SDS011;42323;52.170;7.538;2023-07-29T13:30:06;2.03;;;1.67;;
56419;SDS011;42323;52.170;7.538;2023-07-29T13:32:51;1.50;;;1.40;;
56419;SDS011;42323;52.170;7.538;2023-07-29T13:35:17;2.10;;;1.55;;
56419;SDS011;42323;52.170;7.538;2023-07-29T13:37:44;2.10;;;1.30;;
56419;SDS011;42323;52.170;7.538;2023-07-29T13:40:11;2.17;;;1.60;;
56419;SDS011;42323;52.170;7.538;2023-07-29T13:42:37;1.70;;;1.40;;
56419;SDS011;42323;52.170;7.538;2023-07-29T13:45:04;1.98;;;1.45;;
56419;SDS011;42323;52.170;7.538;2023-07-29T13:47:31;2.38;;;1.45;;
56419;SDS011;42323;52.170;7.538;2023-07-29T13:49:57;1.48;;;1.38;;
56419;SDS011;42323;52.170;7.538;2023-07-29T13:52:25;1.88;;;1.40;;
56419;SDS011;42323;52.170;7.538;2023-07-29T13:54:52;2.00;;;1.60;;
56419;SDS011;42323;52.170;7.538;2023-07-29T13:57:19;1.55;;;1.27;;
56419;SDS011;42323;52.170;7.538;2023-07-29T13:59:45;2.13;;;1.50;;
56419;SDS011;42323;52.170;7.538;2023-07-29T14:02:12;1.30;;;1.17;;
56419;SDS011;42323;52.170;7.538;2023-07-29T14:04:39;1.67;;;1.30;;
56419;SDS011;42323;52.170;7.538;2023-07-29T14:07:06;4.38;;;1.30;;
56419;SDS011;42323;52.170;7.538;2023-07-29T14:09:33;3.47;;;1.23;;
56419;SDS011;42323;52.170;7.538;2023-07-29T14:12:05;2.38;;;1.70;;
56419;SDS011;42323;52.170;7.538;2023-07-29T14:14:34;6.72;;;1.67;;
56419;SDS011;42323;52.170;7.538;2023-07-29T14:17:00;2.50;;;1.70;;
56419;SDS011;42323;52.170;7.538;2023-07-29T14:19:27;2.17;;;1.65;;
56419;SDS011;42323;52.170;7.538;2023-07-29T14:21:53;2.85;;;1.90;;
56419;SDS011;42323;52.170;7.538;2023-07-29T14:24:20;2.45;;;1.40;;
56419;SDS011;42323;52.170;7.538;2023-07-29T14:26:47;2.30;;;1.40;;
56419;SDS011;42323;52.170;7.538;2023-07-29T14:29:14;2.05;;;1.33;;
56419;SDS011;42323;52.170;7.538;2023-07-29T14:31:40;1.70;;;1.23;;
56419;SDS011;42323;52.170;7.538;2023-07-29T14:34:07;2.42;;;1.20;;
56419;SDS011;42323;52.170;7.538;2023-07-29T14:36:34;2.35;;;1.10;;
56419;SDS011;42323;52.170;7.538;2023-07-29T14:39:02;5.55;;;1.42;;
56419;SDS011;42323;52.170;7.538;2023-07-29T14:41:29;2.22;;;1.10;;
56419;SDS011;42323;52.170;7.538;2023-07-29T14:43:56;3.05;;;1.42;;
56419;SDS011;42323;52.170;7.538;2023-07-29T14:46:23;2.67;;;1.20;;
56419;SDS011;42323;52.170;7.538;2023-07-29T14:48:49;3.20;;;1.20;;
56419;SDS011;42323;52.170;7.538;2023-07-29T14:51:16;1.45;;;1.20;;
56419;SDS011;42323;52.170;7.538;2023-07-29T14:53:42;2.28;;;1.52;;
56419;SDS011;42323;52.170;7.538;2023-07-29T14:56:09;1.05;;;0.80;;
56419;SDS011;42323;52.170;7.538;2023-07-29T14:58:36;1.92;;;1.13;;
56419;SDS011;42323;52.170;7.538;2023-07-29T15:01:02;1.25;;;1.00;;
56419;SDS011;42323;52.170;7.538;2023-07-29T15:03:29;1.67;;;0.93;;
56419;SDS011;42323;52.170;7.538;2023-07-29T15:05:55;1.50;;;1.00;;
56419;SDS011;42323;52.170;7.538;2023-07-29T15:08:22;1.38;;;0.90;;
56419;SDS011;42323;52.170;7.538;2023-07-29T15:10:48;1.20;;;0.93;;
56419;SDS011;42323;52.170;7.538;2023-07-29T15:13:15;1.42;;;0.93;;
56419;SDS011;42323;52.170;7.538;2023-07-29T15:15:42;1.15;;;0.77;;
56419;SDS011;42323;52.170;7.538;2023-07-29T15:18:10;1.17;;;0.93;;
56419;SDS011;42323;52.170;7.538;2023-07-29T15:20:36;1.10;;;0.88;;
56419;SDS011;42323;52.170;7.538;2023-07-29T15:23:03;1.77;;;1.10;;
56419;SDS011;42323;52.170;7.538;2023-07-29T15:25:30;1.50;;;1.00;;
56419;SDS011;42323;52.170;7.538;2023-07-29T15:27:56;1.67;;;0.70;;